Time;durP1;ratioP1;P1;durP2;ratioP2;P2;SDS_P1;SDS_P2;PMS_P1;PMS_P2;Temp;Humidity;BMP_temperature;BMP_pressure;BME280_temperature;BME280_humidity;BME280_pressure;Samples;Min_cycle;Max_cycle;Signal;HPM_P1;HPM_P2
2023/01/15 00:00:58;;;;;;;;;;;;;;;12.04;67.20;98581.13;1087059;54;19946;-78
2023/01/15 00:02:19;;;;;;;;;;;;;;;12.01;67.00;98587.72;1086721;54;19950;-79
2023/01/15 00:05:01;;;;;;;;;;;;;;;12.08;67.18;98580.56;1087139;54;19947;-79
2023/01/15 00:13:31;;;;;;;;;;;;;;;11.92;68.04;98562.03;1086526;54;19994;-80
2023/01/15 00:14:32;;;;;;;;;;;;;;;11.97;68.25;98565.84;1087951;39;20333;-79
2023/01/15 00:15:36;;;;;;;;;;;;;;;11.99;67.98;98553.09;1088759;39;20758;-79
2023/01/15 00:16:39;;;;;;;;;;;;;;;12.00;68.05;98553.91;1087024;54;19950;-79
2023/01/15 00:17:43;;;;;;;;;;;;;;;11.98;67.88;98543.41;1087039;54;19938;-79
2023/01/15 00:18:48;;;;;;;;;;;;;;;11.94;68.05;98544.75;1087070;54;19958;-78
2023/01/15 00:19:52;;;;;;;;;;;;;;;11.97;67.94;98541.72;1087117;54;19939;-79
2023/01/15 00:20:57;;;;;;;;;;;;;;;12.02;67.91;98535.81;1087213;54;19927;-77
2023/01/15 00:22:01;;;;;;;;;;;;;;;11.96;68.03;98533.84;1087128;54;19947;-78
2023/01/15 00:23:02;;;;;;;;;;;;;;;11.94;68.38;98541.25;1088522;39;20534;-79
2023/01/15 00:27:55;;;;;;;;;;;;;;;12.00;68.16;98532.47;1087914;54;19942;-80
2023/01/15 00:28:59;;;;;;;;;;;;;;;11.87;68.28;98527.78;1087988;54;19951;-79
2023/01/15 00:30:03;;;;;;;;;;;;;;;11.90;68.43;98532.78;1088004;54;19942;-80
2023/01/15 00:31:04;;;;;;;;;;;;;;;11.88;68.27;98532.13;1088378;39;20521;-79
2023/01/15 00:32:09;;;;;;;;;;;;;;;11.96;68.30;98529.31;1088963;39;20222;-78
2023/01/15 00:33:10;;;;;;;;;;;;;;;11.90;68.60;98535.47;1088899;39;20176;-79
2023/01/15 00:34:14;;;;;;;;;;;;;;;11.95;68.26;98524.19;1087926;54;19954;-79
2023/01/15 00:35:16;;;;;;;;;;;;;;;11.90;68.43;98532.78;1088017;54;19946;-78
2023/01/15 00:36:20;;;;;;;;;;;;;;;11.95;68.47;98524.19;1087986;54;19982;-79
2023/01/15 00:37:21;;;;;;;;;;;;;;;11.88;68.90;98526.78;1088224;54;19965;-79
2023/01/15 00:38:25;;;;;;;;;;;;;;;11.90;68.88;98527.44;1088239;54;19926;-78
2023/01/15 00:39:26;;;;;;;;;;;;;;;11.92;68.75;98525.38;1088269;54;20543;-79
2023/01/15 00:40:29;;;;;;;;;;;;;;;11.92;68.79;98522.69;1091515;46;19939;-79
2023/01/15 00:41:31;;;;;;;;;;;;;;;11.87;69.00;98527.78;1088298;54;19950;-78
2023/01/15 00:42:34;;;;;;;;;;;;;;;11.92;69.09;98525.38;1088256;54;19939;-78
2023/01/15 00:43:36;;;;;;;;;;;;;;;11.90;69.05;98510.50;1088326;54;19943;-79
2023/01/15 00:44:42;;;;;;;;;;;;;;;11.81;69.42;98515.16;1088347;54;19943;-79
2023/01/15 00:45:43;;;;;;;;;;;;;;;11.80;69.85;98510.84;1088246;54;19950;-79
2023/01/15 00:46:47;;;;;;;;;;;;;;;11.80;69.79;98510.84;1088263;54;19927;-81
2023/01/15 00:51:49;;;;;;;;;;;;;;;11.80;70.02;98487.56;1087332;54;20893;-79
2023/01/15 00:53:13;;;;;;;;;;;;;;;11.84;69.59;98493.34;1087990;54;19943;-81
2023/01/15 00:54:48;;;;;;;;;;;;;;;11.80;70.10;98484.06;1087945;54;19927;-79
2023/01/15 01:01:40;;;;;;;;;;;;;;;11.80;69.92;98490.25;1088011;47;20022;-81
2023/01/15 01:03:13;;;;;;;;;;;;;;;11.76;70.11;98488.13;1087854;54;20084;-79
2023/01/15 01:04:47;;;;;;;;;;;;;;;11.90;69.34;98479.22;1087959;54;19931;-80
2023/01/15 01:21:02;;;;;;;;;;;;;;;12.04;68.30;98474.00;1087183;54;19942;-77
2023/01/15 01:22:24;;;;;;;;;;;;;;;12.08;68.42;98464.56;1086582;54;19939;-77
2023/01/15 01:35:33;;;;;;;;;;;;;;;12.13;68.03;98462.13;1089072;39;20017;-79
2023/01/15 01:36:37;;;;;;;;;;;;;;;12.12;68.14;98455.13;1087567;54;19943;-79
2023/01/15 01:37:41;;;;;;;;;;;;;;;12.15;68.20;98457.41;1087611;54;19951;-78
2023/01/15 01:39:56;;;;;;;;;;;;;;;12.05;68.47;98455.06;1086391;54;20441;-78
2023/01/15 01:40:58;;;;;;;;;;;;;;;12.13;68.42;98459.44;1087618;47;20675;-80
2023/01/15 01:42:01;;;;;;;;;;;;;;;12.14;67.92;98447.72;1087483;54;19993;-78
2023/01/15 01:43:02;;;;;;;;;;;;;;;12.11;68.40;98450.78;1087482;54;19954;-79
2023/01/15 01:44:08;;;;;;;;;;;;;;;12.16;67.93;98451.03;1087420;54;19949;-78
2023/01/15 01:45:17;;;;;;;;;;;;;;;12.07;68.25;98453.00;1087396;54;19969;-79
2023/01/15 01:46:20;;;;;;;;;;;;;;;12.06;68.13;98453.22;1087179;54;19946;-79
2023/01/15 01:47:23;;;;;;;;;;;;;;;12.13;67.99;98451.41;1087466;54;19950;-79
2023/01/15 01:48:30;;;;;;;;;;;;;;;12.12;68.10;98447.06;1087317;54;19946;-78
2023/01/15 01:49:32;;;;;;;;;;;;;;;12.04;68.36;98442.72;1087422;54;19954;-78
2023/01/15 01:50:41;;;;;;;;;;;;;;;12.13;68.20;98444.22;1087497;54;19946;-79
2023/01/15 01:51:44;;;;;;;;;;;;;;;12.19;68.05;98439.09;1087501;54;19943;-79
2023/01/15 01:52:51;;;;;;;;;;;;;;;12.19;68.14;98441.78;1087455;54;19954;-78
2023/01/15 01:53:52;;;;;;;;;;;;;;;12.18;68.24;98440.97;1087395;54;19946;-78
2023/01/15 01:54:55;;;;;;;;;;;;;;;12.17;67.78;98440.13;1087388;54;19934;-78
2023/01/15 01:55:57;;;;;;;;;;;;;;;12.16;68.29;98432.28;1087372;54;19950;-78
2023/01/15 01:57:01;;;;;;;;;;;;;;;12.12;68.26;98434.53;1087387;54;19950;-78
2023/01/15 01:58:04;;;;;;;;;;;;;;;12.08;68.29;98437.78;1086907;54;20026;-78
2023/01/15 01:59:08;;;;;;;;;;;;;;;12.06;68.33;98445.19;1086349;54;20069;-77
2023/01/15 02:00:11;;;;;;;;;;;;;;;12.09;68.19;98439.44;1086285;54;19950;-78
2023/01/15 02:01:15;;;;;;;;;;;;;;;12.16;68.23;98432.28;1086762;54;19946;-78
2023/01/15 02:02:19;;;;;;;;;;;;;;;12.15;67.92;98434.13;1086513;54;19957;-77
2023/01/15 02:03:25;;;;;;;;;;;;;;;12.13;68.26;98435.34;1086812;54;19947;-78
2023/01/15 02:04:28;;;;;;;;;;;;;;;12.11;68.12;98432.88;1086577;54;19947;-77
2023/01/15 02:05:34;;;;;;;;;;;;;;;12.11;68.35;98434.69;1086449;54;19997;-77
2023/01/15 02:06:38;;;;;;;;;;;;;;;12.10;68.19;98433.88;1086768;54;20504;-77
2023/01/15 02:07:42;;;;;;;;;;;;;;;12.14;68.21;98431.66;1087006;54;19950;-78
2023/01/15 02:08:46;;;;;;;;;;;;;;;12.20;68.11;98425.50;1087251;54;19962;-79
2023/01/15 02:09:47;;;;;;;;;;;;;;;12.17;68.39;98431.28;1089807;39;20645;-78
2023/01/15 02:10:53;;;;;;;;;;;;;;;12.16;68.09;98424.25;1087278;54;19998;-78
2023/01/15 02:11:57;;;;;;;;;;;;;;;12.13;67.95;98424.63;1089480;39;20404;-78
2023/01/15 02:13:05;;;;;;;;;;;;;;;12.14;68.21;98427.09;1090892;39;20644;-78
2023/01/15 02:14:09;;;;;;;;;;;;;;;12.19;68.30;98423.84;1088227;54;19943;-77
2023/01/15 02:15:15;;;;;;;;;;;;;;;12.14;68.43;98423.63;1088196;54;19943;-81
2023/01/15 02:16:20;;;;;;;;;;;;;;;12.13;68.52;98427.31;1087810;54;19950;-80
2023/01/15 02:17:27;;;;;;;;;;;;;;;12.19;68.52;98420.34;1087568;54;20042;-78
2023/01/15 02:18:30;;;;;;;;;;;;;;;12.19;68.40;98423.03;1087503;54;19954;-78
2023/01/15 02:19:41;;;;;;;;;;;;;;;12.15;68.34;98419.91;1087583;54;19950;-78
2023/01/15 02:20:49;;;;;;;;;;;;;;;12.20;68.37;98420.16;1087173;54;19954;-78
2023/01/15 02:21:55;;;;;;;;;;;;;;;12.19;68.17;98423.03;1087293;54;19949;-79
2023/01/15 02:23:15;;;;;;;;;;;;;;;12.14;68.35;98404.84;1087531;54;19955;-78
2023/01/15 02:24:21;;;;;;;;;;;;;;;12.22;68.27;98418.09;1087230;54;19947;-79
2023/01/15 02:25:31;;;;;;;;;;;;;;;12.21;68.02;98408.41;1088888;46;19971;-78
2023/01/15 02:26:49;;;;;;;;;;;;;;;12.19;68.28;98412.31;1087335;54;19943;-78
2023/01/15 02:27:56;;;;;;;;;;;;;;;12.24;68.06;98408.03;1087340;54;19946;-79
2023/01/15 02:28:58;;;;;;;;;;;;;;;12.15;68.31;98406.53;1087788;46;19946;-79
2023/01/15 02:30:05;;;;;;;;;;;;;;;12.19;68.29;98412.31;1087038;54;19942;-78
2023/01/15 02:31:09;;;;;;;;;;;;;;;12.19;67.92;98412.31;1086681;54;20013;-77
2023/01/15 02:32:16;;;;;;;;;;;;;;;12.24;68.27;98413.38;1086692;54;19947;-78
2023/01/15 02:33:18;;;;;;;;;;;;;;;12.20;68.22;98398.72;1087881;46;19951;-77
2023/01/15 02:34:25;;;;;;;;;;;;;;;12.25;68.00;98403.47;1086973;54;19939;-78
2023/01/15 02:35:28;;;;;;;;;;;;;;;12.20;68.36;98400.56;1086860;54;19958;-77
2023/01/15 02:36:35;;;;;;;;;;;;;;;12.14;68.51;98407.53;1086775;54;19975;-78
2023/01/15 02:37:38;;;;;;;;;;;;;;;12.21;68.20;98395.00;1086755;54;19985;-77
2023/01/15 02:42:21;;;;;;;;;;;;;;;12.16;68.67;98408.19;1085438;54;20038;-78
2023/01/15 02:43:22;;;;;;;;;;;;;;;12.25;68.81;98390.09;1086753;54;19946;-78
2023/01/15 02:44:28;;;;;;;;;;;;;;;12.23;68.88;98397.50;1086528;54;19946;-77
2023/01/15 02:45:34;;;;;;;;;;;;;;;12.23;68.82;98402.88;1088105;39;20365;-79
2023/01/15 02:46:37;;;;;;;;;;;;;;;12.16;68.75;98409.00;1086755;54;19947;-78
2023/01/15 02:47:44;;;;;;;;;;;;;;;12.22;68.63;98399.34;1087169;39;20486;-78
2023/01/15 02:48:49;;;;;;;;;;;;;;;12.20;68.61;98396.03;1087087;54;19970;-78
2023/01/15 02:49:54;;;;;;;;;;;;;;;12.23;68.50;98405.56;1088326;46;19951;-79
2023/01/15 02:50:58;;;;;;;;;;;;;;;12.18;68.26;98406.13;1087072;54;19954;-78
2023/01/15 02:52:04;;;;;;;;;;;;;;;12.20;68.53;98400.56;1087211;54;19946;-78
2023/01/15 02:53:07;;;;;;;;;;;;;;;12.22;68.37;98402.03;1086743;54;19957;-78
2023/01/15 02:54:13;;;;;;;;;;;;;;;12.18;68.52;98403.47;1088296;46;19951;-78
2023/01/15 02:55:16;;;;;;;;;;;;;;;12.22;68.71;98396.66;1086893;54;19942;-78
2023/01/15 02:56:22;;;;;;;;;;;;;;;12.28;68.50;98400.41;1086953;54;19951;-78
2023/01/15 02:57:28;;;;;;;;;;;;;;;12.22;68.73;98411.94;1087272;54;19935;-78
2023/01/15 02:58:34;;;;;;;;;;;;;;;12.29;68.63;98392.19;1087482;54;19934;-78
2023/01/15 02:59:38;;;;;;;;;;;;;;;12.36;68.48;98386.88;1090273;39;20401;-79
2023/01/15 03:00:44;;;;;;;;;;;;;;;12.23;68.56;98403.69;1087786;54;20027;-79
2023/01/15 03:01:49;;;;;;;;;;;;;;;12.27;68.56;98396.94;1087952;54;20309;-79
2023/01/15 03:02:55;;;;;;;;;;;;;;;12.33;68.60;98388.09;1091059;31;20460;-79
2023/01/15 03:03:58;;;;;;;;;;;;;;;12.24;68.91;98389.28;1087692;54;20046;-78
2023/01/15 03:05:04;;;;;;;;;;;;;;;12.22;68.94;98385.97;1087484;54;19950;-79
2023/01/15 03:06:08;;;;;;;;;;;;;;;12.20;68.88;98393.34;1087555;54;19939;-78
2023/01/15 03:07:15;;;;;;;;;;;;;;;12.19;69.11;98396.25;1087333;54;19967;-78
2023/01/15 03:08:16;;;;;;;;;;;;;;;12.23;68.98;98381.44;1087422;54;19942;-78
2023/01/15 03:09:20;;;;;;;;;;;;;;;12.28;69.18;98379.81;1088334;46;19978;-80
2023/01/15 03:10:27;;;;;;;;;;;;;;;12.29;68.91;98381.47;1087677;54;19969;-78
2023/01/15 03:11:31;;;;;;;;;;;;;;;12.24;69.03;98386.59;1087733;54;19950;-79
2023/01/15 03:13:01;;;;;;;;;;;;;;;12.31;68.99;98381.28;1087669;54;19977;-79
2023/01/15 03:14:06;;;;;;;;;;;;;;;12.28;69.27;98384.34;1087613;54;19942;-79
2023/01/15 03:15:10;;;;;;;;;;;;;;;12.28;69.27;98373.63;1087451;54;19935;-79
2023/01/15 03:17:36;;;;;;;;;;;;;;;12.23;68.98;98374.22;1087654;54;19950;-79
2023/01/15 03:18:41;;;;;;;;;;;;;;;12.25;69.31;98369.50;1087381;54;19942;-79
2023/01/15 03:19:48;;;;;;;;;;;;;;;12.25;69.22;98368.66;1087297;54;20051;-78
2023/01/15 03:20:51;;;;;;;;;;;;;;;12.25;69.05;98369.50;1087610;54;19947;-79
2023/01/15 03:21:57;;;;;;;;;;;;;;;12.26;69.30;98373.00;1087551;54;19953;-78
2023/01/15 03:23:03;;;;;;;;;;;;;;;12.23;69.00;98368.88;1087495;54;19950;-79
2023/01/15 03:24:08;;;;;;;;;;;;;;;12.28;68.96;98363.72;1087567;54;20014;-78
2023/01/15 03:25:12;;;;;;;;;;;;;;;12.29;69.00;98370.75;1087691;54;20453;-79
2023/01/15 03:26:16;;;;;;;;;;;;;;;12.26;69.39;98364.97;1087479;54;20440;-78
2023/01/15 03:27:18;;;;;;;;;;;;;;;12.29;69.40;98356.53;1087650;54;19947;-79
2023/01/15 03:33:54;;;;;;;;;;;;;;;;;;;;;
2023/01/15 03:35:11;;;;;;;;;;;;;;;12.25;69.75;98345.38;1088265;54;19943;-80
2023/01/15 03:36:34;;;;;;;;;;;;;;;12.24;69.56;98348.25;1087793;54;19934;-79
2023/01/15 03:37:58;;;;;;;;;;;;;;;12.33;69.32;98345.22;1088007;39;20601;-79
2023/01/15 03:39:46;;;;;;;;;;;;;;;;;;;;;
2023/01/15 03:41:14;;;;;;;;;;;;;;;12.39;69.16;98353.47;1087744;54;19946;-79
2023/01/15 03:42:41;;;;;;;;;;;;;;;12.26;69.35;98354.25;1087303;54;19951;-78
2023/01/15 03:43:51;;;;;;;;;;;;;;;12.30;69.32;98350.16;1087422;54;19947;-78
2023/01/15 03:45:27;;;;;;;;;;;;;;;12.33;69.39;98339.03;1088960;46;20013;-80
2023/01/15 03:46:57;;;;;;;;;;;;;;;12.38;69.17;98343.78;1087098;54;19943;-79
2023/01/15 03:48:25;;;;;;;;;;;;;;;12.38;69.17;98336.59;1088222;46;19960;-79
2023/01/15 03:51:26;;;;;;;;;;;;;;;12.37;69.44;98342.16;1087008;54;20003;-79
2023/01/15 03:54:29;;;;;;;;;;;;;;;12.28;69.66;98347.66;1087047;54;19973;-79
2023/01/15 03:56:11;;;;;;;;;;;;;;;12.31;69.02;98336.56;1087105;54;20003;-78
2023/01/15 03:57:14;;;;;;;;;;;;;;;12.32;69.64;98340.88;1086576;54;19985;-78
2023/01/15 03:58:20;;;;;;;;;;;;;;;12.38;69.37;98346.47;1086280;54;19939;-79
2023/01/15 03:59:22;;;;;;;;;;;;;;;12.37;69.06;98339.47;1086454;54;19947;-77
2023/01/15 04:00:28;;;;;;;;;;;;;;;12.33;69.22;98337.19;1086597;54;19939;-78
2023/01/15 04:01:33;;;;;;;;;;;;;;;12.40;69.22;98328.34;1086771;47;19938;-79
2023/01/15 04:02:38;;;;;;;;;;;;;;;12.40;69.77;98325.66;1087170;46;19985;-78
2023/01/15 04:03:39;;;;;;;;;;;;;;;12.42;69.81;98321.75;1086467;54;19946;-78
2023/01/15 04:04:46;;;;;;;;;;;;;;;12.39;70.01;98315.97;1086643;54;19962;-79
2023/01/15 04:05:48;;;;;;;;;;;;;;;12.37;69.92;98321.53;1086579;54;19974;-78
2023/01/15 04:06:52;;;;;;;;;;;;;;;12.38;70.02;98311.63;1087410;31;20436;-79
2023/01/15 04:11:28;;;;;;;;;;;;;;;12.23;70.98;98315.28;1085528;54;20413;-78
2023/01/15 04:12:31;;;;;;;;;;;;;;;12.30;70.52;98307.28;1086479;54;20531;-78
2023/01/15 04:13:35;;;;;;;;;;;;;;;12.28;70.90;98310.16;1087067;39;20329;-77
2023/01/15 04:14:36;;;;;;;;;;;;;;;12.16;70.93;98309.06;1086937;54;19974;-77
2023/01/15 04:15:40;;;;;;;;;;;;;;;12.23;70.90;98311.78;1089461;39;20481;-77
2023/01/15 04:16:41;;;;;;;;;;;;;;;12.21;71.01;98309.28;1086933;54;19951;-78
2023/01/15 04:17:45;;;;;;;;;;;;;;;12.29;70.80;98314.47;1087205;46;19985;-77
2023/01/15 04:18:46;;;;;;;;;;;;;;;12.21;70.65;98324.53;1086873;54;19933;-78
2023/01/15 04:19:52;;;;;;;;;;;;;;;12.19;70.85;98311.34;1087263;54;20017;-77
2023/01/15 04:20:54;;;;;;;;;;;;;;;12.22;70.91;98316.31;1087014;54;19968;-77
2023/01/15 04:21:58;;;;;;;;;;;;;;;12.21;70.36;98309.28;1086953;54;19950;-78
2023/01/15 04:22:59;;;;;;;;;;;;;;;12.28;70.44;98303.97;1087061;54;19951;-77
2023/01/15 04:24:03;;;;;;;;;;;;;;;12.32;70.13;98311.41;1087305;47;19926;-77
2023/01/15 04:25:04;;;;;;;;;;;;;;;12.21;70.26;98298.56;1087122;54;19950;-77
2023/01/15 04:26:09;;;;;;;;;;;;;;;12.23;69.76;98301.88;1087349;54;19982;-77
2023/01/15 04:27:10;;;;;;;;;;;;;;;12.22;69.74;98310.94;1087307;54;19958;-77
2023/01/15 04:34:53;;;;;;;;;;;;;;;;;;;;;
2023/01/15 04:36:34;;;;;;;;;;;;;;;12.28;73.48;98385.16;1086785;54;20053;-78
2023/01/15 04:45:17;;;;;;;;;;;;;;;11.03;83.66;98414.06;1088100;54;19946;-78
2023/01/15 04:46:20;;;;;;;;;;;;;;;10.92;84.00;98413.53;1087995;54;19943;-78
2023/01/15 04:47:24;;;;;;;;;;;;;;;10.84;84.22;98420.84;1088019;54;19942;-77
2023/01/15 04:48:25;;;;;;;;;;;;;;;10.73;84.10;98431.00;1088002;54;19946;-77
2023/01/15 04:49:32;;;;;;;;;;;;;;;10.67;83.33;98439.75;1090107;47;20667;-77
2023/01/15 04:50:33;;;;;;;;;;;;;;;10.47;82.02;98435.97;1088516;47;19923;-78
2023/01/15 04:54:32;;;;;;;;;;;;;;;10.24;80.59;98458.19;1088868;47;19966;-79
2023/01/15 04:55:33;;;;;;;;;;;;;;;10.20;80.63;98470.25;1088018;54;20567;-77
2023/01/15 04:56:41;;;;;;;;;;;;;;;10.22;80.19;98460.19;1087954;54;19938;-78
2023/01/15 04:57:42;;;;;;;;;;;;;;;10.20;79.80;98459.56;1088409;47;19949;-78
2023/01/15 04:58:48;;;;;;;;;;;;;;;10.08;80.25;98470.69;1087955;54;19942;-77
2023/01/15 04:59:49;;;;;;;;;;;;;;;10.03;80.07;98457.03;1087935;54;19963;-78
2023/01/15 05:00:53;;;;;;;;;;;;;;;10.07;79.66;98469.03;1089411;47;19950;-80
2023/01/15 05:01:55;;;;;;;;;;;;;;;9.91;80.72;98469.97;1088356;54;19927;-81
2023/01/15 05:03:05;;;;;;;;;;;;;;;9.95;80.41;98470.44;1088669;47;19930;-80
2023/01/15 05:04:10;;;;;;;;;;;;;;;9.94;80.49;98474.13;1088276;54;19942;-80
2023/01/15 05:05:11;;;;;;;;;;;;;;;9.81;81.06;98464.91;1088364;54;19957;-81
2023/01/15 05:06:17;;;;;;;;;;;;;;;9.82;81.06;98468.38;1089678;47;20006;-83
2023/01/15 05:07:21;;;;;;;;;;;;;;;9.81;81.31;98472.91;1088531;54;19927;-82
2023/01/15 05:10:07;;;;;;;;;;;;;;;9.50;81.80;98487.13;1087621;54;19961;-80
2023/01/15 05:12:42;;;;;;;;;;;;;;;9.29;82.73;98497.56;1087853;54;19943;-81
2023/01/15 05:14:10;;;;;;;;;;;;;;;9.35;82.84;98497.69;1087681;54;19946;-81
2023/01/15 05:15:14;;;;;;;;;;;;;;;9.51;81.80;98491.44;1087687;54;19946;-81
2023/01/15 05:16:41;;;;;;;;;;;;;;;9.56;81.55;98492.75;1088400;54;19927;-84
2023/01/15 05:17:42;;;;;;;;;;;;;;;9.46;81.52;98503.66;1094796;47;19943;-81
2023/01/15 05:18:54;;;;;;;;;;;;;;;9.48;81.54;98507.78;1088429;54;19939;-81
2023/01/15 05:19:55;;;;;;;;;;;;;;;9.51;81.66;98503.94;1088406;54;19998;-81
2023/01/15 05:21:30;;;;;;;;;;;;;;;9.56;81.34;98514.09;1088317;54;19962;-82
2023/01/15 05:30:42;;;;;;;;;;;;;;;9.51;82.21;98542.13;1088791;46;19931;-82
2023/01/15 05:31:46;;;;;;;;;;;;;;;9.47;82.22;98540.81;1088832;54;19947;-83
2023/01/15 05:35:52;;;;;;;;;;;;;;;9.25;83.03;98562.94;1088771;54;19938;-82
2023/01/15 06:31:58;;;;;;;;;;;;;;;8.47;87.24;98616.69;1087798;54;20519;-81
2023/01/15 06:33:03;;;;;;;;;;;;;;;8.41;86.81;98617.31;1088361;54;19962;-81
2023/01/15 06:34:07;;;;;;;;;;;;;;;8.27;87.86;98614.31;1088489;54;19943;-82
2023/01/15 07:08:21;;;;;;;;;;;;;;;7.32;83.21;98734.19;1075182;54;19946;-82
2023/01/15 07:18:44;;;;;;;;;;;;;;;7.03;82.60;98761.88;1090645;39;20180;-80
2023/01/15 07:19:45;;;;;;;;;;;;;;;7.03;81.64;98764.53;1088032;54;19952;-81
2023/01/15 07:20:49;;;;;;;;;;;;;;;7.15;81.75;98762.47;1089527;39;20482;-79
2023/01/15 07:21:50;;;;;;;;;;;;;;;7.25;81.06;98759.69;1089594;39;20568;-81
2023/01/15 07:22:54;;;;;;;;;;;;;;;7.16;80.87;98764.13;1088064;54;19982;-81
2023/01/15 07:24:00;;;;;;;;;;;;;;;7.17;80.72;98765.81;1088130;54;19942;-79
2023/01/15 07:25:04;;;;;;;;;;;;;;;7.26;80.49;98764.88;1088087;54;20006;-79
2023/01/15 07:26:05;;;;;;;;;;;;;;;7.17;80.10;98763.97;1088121;54;19931;-79
2023/01/15 07:27:09;;;;;;;;;;;;;;;7.09;79.62;98776.34;1088175;54;20024;-80
2023/01/15 07:28:11;;;;;;;;;;;;;;;7.04;79.60;98779.47;1088253;54;19949;-82
2023/01/15 07:29:15;;;;;;;;;;;;;;;7.01;79.88;98769.16;1089800;46;19950;-81
2023/01/15 07:30:17;;;;;;;;;;;;;;;6.99;80.13;98773.78;1088182;54;19950;-81
2023/01/15 07:31:21;;;;;;;;;;;;;;;6.94;79.02;98768.13;1094310;39;20685;-80
2023/01/15 07:32:24;;;;;;;;;;;;;;;6.94;79.73;98766.28;1088023;54;20657;-83
2023/01/15 07:33:28;;;;;;;;;;;;;;;7.05;79.77;98772.34;1087865;54;19938;-81
2023/01/15 07:34:32;;;;;;;;;;;;;;;6.96;79.43;98779.41;1088047;54;19977;-82
2023/01/15 07:35:35;;;;;;;;;;;;;;;6.93;79.37;98783.19;1088334;54;19923;-82
2023/01/15 07:36:39;;;;;;;;;;;;;;;6.97;79.60;98779.25;1088337;54;19990;-81
2023/01/15 07:37:42;;;;;;;;;;;;;;;7.03;79.60;98778.66;1090609;46;19938;-80
2023/01/15 07:38:49;;;;;;;;;;;;;;;6.90;79.19;98772.88;1088106;54;19943;-81
2023/01/15 07:39:52;;;;;;;;;;;;;;;7.03;79.55;98785.78;1088154;54;20002;-81
2023/01/15 07:49:54;;;;;;;;;;;;;;;7.05;78.53;98789.09;1088517;54;19962;-81
2023/01/15 07:51:04;;;;;;;;;;;;;;;7.01;78.44;98785.94;1089997;46;19966;-81
2023/01/15 07:52:39;;;;;;;;;;;;;;;6.95;78.32;98791.00;1089731;46;19938;-82
2023/01/15 07:53:48;;;;;;;;;;;;;;;7.18;78.40;98786.06;1091517;46;19942;-82
2023/01/15 07:55:13;;;;;;;;;;;;;;;7.15;78.44;98791.69;1090282;46;19926;-81
2023/01/15 07:56:31;;;;;;;;;;;;;;;7.16;78.34;98788.06;1088370;54;19923;-82
2023/01/15 07:57:33;;;;;;;;;;;;;;;7.18;78.43;98802.00;1088420;54;20037;-82
2023/01/15 07:58:36;;;;;;;;;;;;;;;7.13;79.00;98801.66;1088375;54;19947;-82
2023/01/15 07:59:38;;;;;;;;;;;;;;;7.05;77.93;98813.03;1088360;54;20555;-82
2023/01/15 08:00:42;;;;;;;;;;;;;;;7.23;78.49;98820.16;1088328;54;19923;-82
2023/01/15 08:01:43;;;;;;;;;;;;;;;7.12;78.27;98822.09;1088361;54;19934;-83
2023/01/15 08:02:49;;;;;;;;;;;;;;;7.28;77.95;98813.38;1088305;54;20508;-81
2023/01/15 08:03:50;;;;;;;;;;;;;;;7.18;77.53;98826.78;1088352;54;19945;-82
2023/01/15 08:04:54;;;;;;;;;;;;;;;7.15;77.26;98820.94;1088360;54;19942;-82
2023/01/15 08:05:56;;;;;;;;;;;;;;;7.13;77.17;98814.94;1088345;54;19947;-81
2023/01/15 08:07:02;;;;;;;;;;;;;;;7.23;77.30;98822.81;1088181;54;20027;-81
2023/01/15 08:08:03;;;;;;;;;;;;;;;7.28;77.27;98824.03;1088259;54;19942;-80
2023/01/15 08:35:25;;;;;;;;;;;;;;;6.78;78.75;98869.72;1091403;47;20002;-84
2023/01/15 08:42:10;;;;;;;;;;;;;;;6.85;77.75;98879.59;1088139;54;19952;-81
2023/01/15 08:43:18;;;;;;;;;;;;;;;6.88;77.75;98881.13;1087891;54;19949;-81
2023/01/15 09:23:52;;;;;;;;;;;;;;;6.38;77.40;98949.56;1090226;31;20644;-82
2023/01/15 09:24:59;;;;;;;;;;;;;;;6.44;77.54;98960.59;1115567;39;20155;-82
2023/01/15 09:26:05;;;;;;;;;;;;;;;6.41;77.94;98948.44;1091401;46;19927;-84
2023/01/15 09:34:15;;;;;;;;;;;;;;;6.34;77.73;98965.94;1088557;54;19947;-83
2023/01/15 09:35:16;;;;;;;;;;;;;;;6.41;78.04;98959.06;1091702;46;19927;-81
2023/01/15 09:36:24;;;;;;;;;;;;;;;6.39;78.22;98977.78;1090506;47;20005;-82
2023/01/15 09:37:26;;;;;;;;;;;;;;;6.49;78.00;98974.28;1088450;54;19933;-80
2023/01/15 09:38:33;;;;;;;;;;;;;;;6.40;78.38;98974.16;1088334;54;19942;-80
2023/01/15 09:39:40;;;;;;;;;;;;;;;6.24;78.02;98987.19;1088416;54;19942;-81
2023/01/15 09:40:48;;;;;;;;;;;;;;;6.21;78.04;98983.00;1090055;46;19954;-80
2023/01/15 09:42:05;;;;;;;;;;;;;;;6.15;77.80;99001.31;1088518;54;19939;-81
2023/01/15 09:43:14;;;;;;;;;;;;;;;6.14;78.61;98994.34;1088428;54;19943;-81
2023/01/15 09:44:22;;;;;;;;;;;;;;;6.12;78.09;98999.78;1088437;54;20664;-81
2023/01/15 09:45:28;;;;;;;;;;;;;;;6.11;78.55;98994.63;1088518;54;19934;-82
2023/01/15 09:46:47;;;;;;;;;;;;;;;6.12;78.22;99010.38;1088455;54;19943;-79
2023/01/15 09:48:06;;;;;;;;;;;;;;;6.23;78.45;99004.09;1088420;54;19983;-81
2023/01/15 09:49:18;;;;;;;;;;;;;;;6.19;78.44;99010.66;1088371;54;19930;-81
2023/01/15 12:35:25;;;;;;;;;;;;;;;;;;;;;
2023/01/15 14:18:55;;;;;;;;;;;;;;;6.15;64.82;99213.59;1077487;54;20784;-85
2023/01/15 16:25:29;;;;;;;;;;;;;;;6.10;63.03;99171.56;1077010;54;20865;-81
2023/01/15 18:25:33;;;;;;;;;;;;;;;5.56;61.23;99113.47;1088338;54;19954;-84
2023/01/15 18:28:19;;;;;;;;;;;;;;;5.49;60.96;99117.66;1097614;39;20674;-81
2023/01/15 18:29:34;;;;;;;;;;;;;;;5.57;60.92;99109.03;1094308;46;19949;-84
2023/01/15 19:34:03;;;;;;;;;;;;;;;5.49;62.19;99106.19;1085604;54;19974;-79
2023/01/15 19:35:05;;;;;;;;;;;;;;;5.58;61.91;99105.38;1085669;54;19947;-79
2023/01/15 19:36:09;;;;;;;;;;;;;;;5.55;61.78;99101.19;1088426;31;20416;-80
2023/01/15 19:37:12;;;;;;;;;;;;;;;5.50;62.07;99105.22;1085724;54;20040;-79
2023/01/15 19:38:16;;;;;;;;;;;;;;;5.37;62.22;99110.78;1085928;54;19946;-79
2023/01/15 19:39:18;;;;;;;;;;;;;;;5.40;62.32;99099.91;1086229;39;20372;-78
2023/01/15 19:40:23;;;;;;;;;;;;;;;5.28;62.76;99099.19;1085429;54;19950;-78
2023/01/15 19:50:24;;;;;;;;;;;;;;;5.29;62.48;99077.00;1085641;54;19939;-77
2023/01/15 19:52:33;;;;;;;;;;;;;;;5.31;62.58;99083.00;1085224;54;19947;-77
2023/01/15 19:52:51;;;;;;;;;;;;;;;5.35;62.74;99079.13;1085495;54;19969;-78
2023/01/15 19:53:54;;;;;;;;;;;;;;;5.41;62.34;99070.59;1085602;54;19946;-79
2023/01/15 19:54:56;;;;;;;;;;;;;;;5.43;62.42;99071.31;1085808;54;19946;-78
2023/01/15 19:55:59;;;;;;;;;;;;;;;5.41;62.41;99070.59;1086415;31;20442;-77
2023/01/15 19:57:00;;;;;;;;;;;;;;;5.36;62.59;99069.34;1085477;54;19947;-78
2023/01/15 19:58:05;;;;;;;;;;;;;;;5.44;62.25;99075.66;1085534;54;20449;-78
2023/01/15 19:59:06;;;;;;;;;;;;;;;5.41;62.37;99067.97;1085717;54;19947;-78
2023/01/15 20:00:11;;;;;;;;;;;;;;;5.48;62.18;99073.56;1085831;47;19951;-78
2023/01/15 20:01:16;;;;;;;;;;;;;;;5.53;62.20;99062.53;1085550;54;19946;-78
2023/01/15 20:02:17;;;;;;;;;;;;;;;5.43;62.41;99055.41;1085615;54;19938;-78
2023/01/15 20:03:21;;;;;;;;;;;;;;;5.50;62.12;99061.00;1085692;54;19947;-78
2023/01/15 20:04:25;;;;;;;;;;;;;;;5.44;62.38;99054.44;1085467;54;19946;-78
2023/01/15 20:05:29;;;;;;;;;;;;;;;5.44;62.35;99059.75;1085541;54;20293;-77
2023/01/15 20:06:33;;;;;;;;;;;;;;;5.51;62.24;99056.53;1085360;54;19946;-78
2023/01/15 20:07:34;;;;;;;;;;;;;;;5.44;62.14;99057.09;1085541;54;19973;-78
2023/01/15 20:08:39;;;;;;;;;;;;;;;5.33;62.68;99049.25;1085288;54;19951;-78
2023/01/15 20:09:40;;;;;;;;;;;;;;;5.47;62.51;99046.22;1085544;54;19950;-77
2023/01/15 20:10:46;;;;;;;;;;;;;;;5.52;62.32;99047.63;1085169;54;19946;-78
2023/01/15 20:14:22;;;;;;;;;;;;;;;5.44;62.48;99037.69;1085203;54;19947;-78
2023/01/15 20:15:23;;;;;;;;;;;;;;;5.46;62.25;99033.09;1085605;54;19946;-77
2023/01/15 20:16:27;;;;;;;;;;;;;;;5.46;62.45;99028.63;1085776;54;19946;-78
2023/01/15 20:17:29;;;;;;;;;;;;;;;5.50;62.17;99038.94;1085794;54;20070;-79
2023/01/15 20:18:33;;;;;;;;;;;;;;;5.44;62.26;99033.22;1085852;54;19951;-78
2023/01/15 20:19:36;;;;;;;;;;;;;;;5.47;62.26;99032.13;1085367;54;19973;-78
2023/01/15 20:20:40;;;;;;;;;;;;;;;5.53;62.28;99020.13;1086071;54;19946;-78
2023/01/15 20:21:45;;;;;;;;;;;;;;;5.52;62.31;99021.09;1085739;54;20444;-78
2023/01/15 20:22:46;;;;;;;;;;;;;;;5.52;62.12;99010.50;1089748;39;20082;-78
2023/01/15 20:23:50;;;;;;;;;;;;;;;5.55;62.18;99011.06;1085849;54;19959;-81